sensor_id;sensor_type;location;lat;lon;timestamp;pressure;altitude;pressure_sealevel;temperature;humidity
20009;BME280;10165;42.662;23.260;2023-03-25T00:02:25;93843.13;;;12.71;53.99
20009;BME280;10165;42.662;23.260;2023-03-25T00:04:55;93851.25;;;12.78;53.74
20009;BME280;10165;42.662;23.260;2023-03-25T00:07:22;93844.47;;;12.88;53.37
20009;BME280;10165;42.662;23.260;2023-03-25T00:09:49;93842.94;;;12.87;53.31
20009;BME280;10165;42.662;23.260;2023-03-25T00:12:16;93851.03;;;12.90;53.05
20009;BME280;10165;42.662;23.260;2023-03-25T00:14:45;93840.31;;;12.90;53.21
20009;BME280;10165;42.662;23.260;2023-03-25T00:17:21;93839.88;;;12.88;53.05
20009;BME280;10165;42.662;23.260;2023-03-25T00:19:48;93832.63;;;12.89;52.85
20009;BME280;10165;42.662;23.260;2023-03-25T00:22:17;93825.66;;;12.84;53.00
20009;BME280;10165;42.662;23.260;2023-03-25T00:24:44;93826.81;;;12.83;53.19
20009;BME280;10165;42.662;23.260;2023-03-25T00:27:11;93824.31;;;12.68;53.60
20009;BME280;10165;42.662;23.260;2023-03-25T00:29:40;93823.31;;;12.79;53.32
20009;BME280;10165;42.662;23.260;2023-03-25T00:32:10;93821.47;;;12.83;53.20
20009;BME280;10165;42.662;23.260;2023-03-25T00:34:37;93814.94;;;12.84;53.06
20009;BME280;10165;42.662;23.260;2023-03-25T00:37:08;93819.16;;;12.85;52.96
20009;BME280;10165;42.662;23.260;2023-03-25T00:39:35;93826.81;;;12.83;52.97
20009;BME280;10165;42.662;23.260;2023-03-25T00:42:03;93823.31;;;12.79;53.06
20009;BME280;10165;42.662;23.260;2023-03-25T00:44:31;93822.56;;;12.49;53.65
20009;BME280;10165;42.662;23.260;2023-03-25T00:46:57;93815.66;;;12.48;53.78
20009;BME280;10165;42.662;23.260;2023-03-25T00:49:24;93821.78;;;12.49;54.00
20009;BME280;10165;42.662;23.260;2023-03-25T00:51:54;93816.50;;;12.56;53.85
20009;BME280;10165;42.662;23.260;2023-03-25T00:54:22;93813.13;;;12.62;53.52
20009;BME280;10165;42.662;23.260;2023-03-25T00:56:51;93808.22;;;12.64;53.46
20009;BME280;10165;42.662;23.260;2023-03-25T00:59:18;93803.63;;;12.65;53.47
20009;BME280;10165;42.662;23.260;2023-03-25T01:01:44;93800.81;;;12.58;53.47
20009;BME280;10165;42.662;23.260;2023-03-25T01:04:14;93791.66;;;12.59;53.63
20009;BME280;10165;42.662;23.260;2023-03-25T01:06:42;93795.44;;;12.54;53.67
20009;BME280;10165;42.662;23.260;2023-03-25T01:09:12;93798.84;;;12.51;53.54
20009;BME280;10165;42.662;23.260;2023-03-25T01:11:40;93793.13;;;12.53;53.44
20009;BME280;10165;42.662;23.260;2023-03-25T01:14:12;93782.38;;;12.49;53.52
20009;BME280;10165;42.662;23.260;2023-03-25T01:16:39;93782.25;;;12.42;54.04
20009;BME280;10165;42.662;23.260;2023-03-25T01:19:06;93783.53;;;12.52;53.67
20009;BME280;10165;42.662;23.260;2023-03-25T01:21:33;93781.69;;;12.26;54.13
20009;BME280;10165;42.662;23.260;2023-03-25T01:24:03;93773.31;;;12.31;54.04
20009;BME280;10165;42.662;23.260;2023-03-25T01:26:30;93770.38;;;12.39;54.11
20009;BME280;10165;42.662;23.260;2023-03-25T01:28:57;93767.19;;;12.30;54.39
20009;BME280;10165;42.662;23.260;2023-03-25T01:31:24;93763.53;;;12.16;54.69
20009;BME280;10165;42.662;23.260;2023-03-25T01:33:56;93771.19;;;11.65;56.62
20009;BME280;10165;42.662;23.260;2023-03-25T01:36:26;93766.75;;;11.72;56.24
20009;BME280;10165;42.662;23.260;2023-03-25T01:38:58;93756.94;;;11.80;55.90
20009;BME280;10165;42.662;23.260;2023-03-25T01:41:26;93762.66;;;11.33;56.99
20009;BME280;10165;42.662;23.260;2023-03-25T01:46:40;93753.38;;;11.49;57.20
20009;BME280;10165;42.662;23.260;2023-03-25T01:49:40;93749.41;;;11.17;57.85
20009;BME280;10165;42.662;23.260;2023-03-25T01:52:17;93758.59;;;11.20;57.55
20009;BME280;10165;42.662;23.260;2023-03-25T01:54:49;93760.97;;;11.25;57.71
20009;BME280;10165;42.662;23.260;2023-03-25T01:57:19;93757.72;;;11.35;57.67
20009;BME280;10165;42.662;23.260;2023-03-25T01:59:49;93749.09;;;11.45;56.98
20009;BME280;10165;42.662;23.260;2023-03-25T02:02:17;93753.84;;;11.55;57.15
20009;BME280;10165;42.662;23.260;2023-03-25T02:04:52;93750.19;;;11.67;56.39
20009;BME280;10165;42.662;23.260;2023-03-25T02:07:30;93754.72;;;11.63;56.50
20009;BME280;10165;42.662;23.260;2023-03-25T02:10:00;93750.38;;;11.77;55.84
20009;BME280;10165;42.662;23.260;2023-03-25T02:12:28;93750.34;;;11.74;56.15
20009;BME280;10165;42.662;23.260;2023-03-25T02:14:55;93751.25;;;11.85;55.90
20009;BME280;10165;42.662;23.260;2023-03-25T02:26:18;93737.16;;;11.65;56.32
20009;BME280;10165;42.662;23.260;2023-03-25T02:29:17;93737.50;;;11.60;56.03
20009;BME280;10165;42.662;23.260;2023-03-25T02:43:19;93730.84;;;11.28;57.15
20009;BME280;10165;42.662;23.260;2023-03-25T02:45:54;93731.66;;;11.55;56.44
20009;BME280;10165;42.662;23.260;2023-03-25T02:48:31;93725.00;;;11.68;56.23
20009;BME280;10165;42.662;23.260;2023-03-25T02:51:06;93725.28;;;11.85;55.67
20009;BME280;10165;42.662;23.260;2023-03-25T02:53:36;93725.22;;;11.82;55.69
20009;BME280;10165;42.662;23.260;2023-03-25T02:56:09;93722.94;;;11.80;55.67
20009;BME280;10165;42.662;23.260;2023-03-25T02:58:39;93718.22;;;11.74;55.88
20009;BME280;10165;42.662;23.260;2023-03-25T03:01:07;93726.34;;;11.81;55.71
20009;BME280;10165;42.662;23.260;2023-03-25T03:03:35;93725.78;;;11.68;55.56
20009;BME280;10165;42.662;23.260;2023-03-25T03:06:04;93726.63;;;11.72;55.62
20009;BME280;10165;42.662;23.260;2023-03-25T03:13:51;93713.53;;;11.67;55.49
20009;BME280;10165;42.662;23.260;2023-03-25T03:21:57;93708.22;;;11.71;55.37
20009;BME280;10165;42.662;23.260;2023-03-25T03:24:35;93717.44;;;11.73;55.32
20009;BME280;10165;42.662;23.260;2023-03-25T03:27:18;93722.72;;;11.70;55.18
20009;BME280;10165;42.662;23.260;2023-03-25T03:29:52;93726.00;;;11.82;55.01
20009;BME280;10165;42.662;23.260;2023-03-25T03:32:28;93718.44;;;11.65;55.38
20009;BME280;10165;42.662;23.260;2023-03-25T03:35:03;93725.84;;;11.72;55.26
20009;BME280;10165;42.662;23.260;2023-03-25T03:37:35;93725.06;;;11.71;55.38
20009;BME280;10165;42.662;23.260;2023-03-25T03:40:05;93726.94;;;11.71;55.17
20009;BME280;10165;42.662;23.260;2023-03-25T03:43:05;93727.16;;;11.59;55.42
20009;BME280;10165;42.662;23.260;2023-03-25T03:45:37;93735.66;;;11.64;55.47
20009;BME280;10165;42.662;23.260;2023-03-25T03:48:11;93736.63;;;11.52;55.61
20009;BME280;10165;42.662;23.260;2023-03-25T03:50:45;93737.44;;;11.57;55.44
20009;BME280;10165;42.662;23.260;2023-03-25T03:53:22;93726.47;;;11.65;55.24
20009;BME280;10165;42.662;23.260;2023-03-25T03:55:58;93726.25;;;11.51;55.76
20009;BME280;10165;42.662;23.260;2023-03-25T03:58:32;93736.78;;;11.63;55.15
20009;BME280;10165;42.662;23.260;2023-03-25T04:01:07;93730.59;;;11.59;55.17
20009;BME280;10165;42.662;23.260;2023-03-25T04:03:55;93723.34;;;11.60;55.22
20009;BME280;10165;42.662;23.260;2023-03-25T04:06:37;93726.47;;;11.65;55.31
20009;BME280;10165;42.662;23.260;2023-03-25T04:09:21;93731.31;;;11.56;55.05
20009;BME280;10165;42.662;23.260;2023-03-25T04:11:59;93729.06;;;11.35;55.63
20009;BME280;10165;42.662;23.260;2023-03-25T04:14:28;93725.16;;;11.52;55.38
20009;BME280;10165;42.662;23.260;2023-03-25T04:16:55;93723.59;;;11.51;55.56
20009;BME280;10165;42.662;23.260;2023-03-25T04:19:22;93723.69;;;11.58;55.36
20009;BME280;10165;42.662;23.260;2023-03-25T04:21:49;93723.75;;;11.62;55.18
20009;BME280;10165;42.662;23.260;2023-03-25T04:24:16;93715.78;;;11.65;55.21
20009;BME280;10165;42.662;23.260;2023-03-25T04:26:46;93718.97;;;11.48;55.35
20009;BME280;10165;42.662;23.260;2023-03-25T04:29:13;93719.53;;;11.61;54.89
20009;BME280;10165;42.662;23.260;2023-03-25T04:31:39;93721.00;;;11.32;55.74
20009;BME280;10165;42.662;23.260;2023-03-25T04:34:15;93727.38;;;11.50;55.49
20009;BME280;10165;42.662;23.260;2023-03-25T04:36:42;93731.66;;;11.55;55.31
20009;BME280;10165;42.662;23.260;2023-03-25T04:39:09;93732.94;;;11.38;55.76
20009;BME280;10165;42.662;23.260;2023-03-25T04:41:38;93738.28;;;11.38;56.05
20009;BME280;10165;42.662;23.260;2023-03-25T04:44:05;93725.31;;;11.40;56.08
20009;BME280;10165;42.662;23.260;2023-03-25T04:46:34;93732.72;;;11.50;55.62
20009;BME280;10165;42.662;23.260;2023-03-25T04:49:04;93739.34;;;11.56;55.58
20009;BME280;10165;42.662;23.260;2023-03-25T04:51:31;93740.91;;;11.57;55.74
20009;BME280;10165;42.662;23.260;2023-03-25T04:53:58;93739.03;;;11.61;55.48
20009;BME280;10165;42.662;23.260;2023-03-25T04:56:25;93737.13;;;11.62;55.47
20009;BME280;10165;42.662;23.260;2023-03-25T04:58:52;93739.56;;;11.70;55.37
20009;BME280;10165;42.662;23.260;2023-03-25T05:01:23;93728.16;;;11.73;55.04
20009;BME280;10165;42.662;23.260;2023-03-25T05:04:01;93725.53;;;11.77;55.06
20009;BME280;10165;42.662;23.260;2023-03-25T05:06:32;93735.25;;;11.88;55.02
20009;BME280;10165;42.662;23.260;2023-03-25T05:09:00;93731.94;;;11.95;54.72
20009;BME280;10165;42.662;23.260;2023-03-25T05:11:31;93734.22;;;11.96;54.51
20009;BME280;10165;42.662;23.260;2023-03-25T05:14:01;93740.00;;;11.98;54.92
20009;BME280;10165;42.662;23.260;2023-03-25T05:16:29;93744.16;;;11.96;55.20
20009;BME280;10165;42.662;23.260;2023-03-25T05:18:58;93732.47;;;12.08;54.81
20009;BME280;10165;42.662;23.260;2023-03-25T05:21:25;93742.41;;;12.07;54.89
20009;BME280;10165;42.662;23.260;2023-03-25T05:23:52;93738.63;;;12.12;54.54
20009;BME280;10165;42.662;23.260;2023-03-25T05:26:23;93743.72;;;12.20;54.61
20009;BME280;10165;42.662;23.260;2023-03-25T05:28:52;93737.19;;;12.18;54.75
20009;BME280;10165;42.662;23.260;2023-03-25T05:31:22;93733.53;;;12.29;54.10
20009;BME280;10165;42.662;23.260;2023-03-25T05:34:03;93726.66;;;12.32;53.18
20009;BME280;10165;42.662;23.260;2023-03-25T05:36:36;93735.59;;;12.43;53.24
20009;BME280;10165;42.662;23.260;2023-03-25T05:39:06;93738.41;;;12.54;52.67
20009;BME280;10165;42.662;23.260;2023-03-25T05:41:38;93737.72;;;12.60;53.29
20009;BME280;10165;42.662;23.260;2023-03-25T05:44:06;93744.75;;;12.72;52.98
20009;BME280;10165;42.662;23.260;2023-03-25T05:46:34;93749.78;;;12.77;52.63
20009;BME280;10165;42.662;23.260;2023-03-25T05:49:01;93746.38;;;12.80;52.70
20009;BME280;10165;42.662;23.260;2023-03-25T05:51:31;93747.22;;;12.87;52.71
20009;BME280;10165;42.662;23.260;2023-03-25T05:53:59;93743.06;;;12.93;52.63
20009;BME280;10165;42.662;23.260;2023-03-25T05:56:28;93741.16;;;12.94;52.32
20009;BME280;10165;42.662;23.260;2023-03-25T05:58:55;93745.84;;;13.04;52.25
20009;BME280;10165;42.662;23.260;2023-03-25T06:01:23;93744.38;;;13.07;52.16
20009;BME280;10165;42.662;23.260;2023-03-25T06:04:00;93737.19;;;13.14;51.64
20009;BME280;10165;42.662;23.260;2023-03-25T06:06:28;93736.88;;;13.23;51.33
20009;BME280;10165;42.662;23.260;2023-03-25T06:08:55;93738.50;;;13.34;50.41
20009;BME280;10165;42.662;23.260;2023-03-25T06:11:22;93736.19;;;13.29;50.60
20009;BME280;10165;42.662;23.260;2023-03-25T06:13:50;93726.69;;;13.43;50.68
20009;BME280;10165;42.662;23.260;2023-03-25T06:16:18;93731.78;;;13.55;50.68
20009;BME280;10165;42.662;23.260;2023-03-25T06:18:47;93728.38;;;13.61;50.45
20009;BME280;10165;42.662;23.260;2023-03-25T06:21:17;93720.31;;;13.61;50.16
20009;BME280;10165;42.662;23.260;2023-03-25T06:23:45;93727.41;;;13.36;50.56
20009;BME280;10165;42.662;23.260;2023-03-25T06:26:15;93730.84;;;13.33;51.11
20009;BME280;10165;42.662;23.260;2023-03-25T06:28:42;93736.72;;;13.09;50.85
20009;BME280;10165;42.662;23.260;2023-03-25T06:31:20;93728.66;;;13.49;49.32
20009;BME280;10165;42.662;23.260;2023-03-25T06:33:49;93725.13;;;13.38;49.88
20009;BME280;10165;42.662;23.260;2023-03-25T06:36:17;93725.22;;;13.49;49.96
20009;BME280;10165;42.662;23.260;2023-03-25T06:38:47;93740.34;;;13.27;50.34
20009;BME280;10165;42.662;23.260;2023-03-25T06:41:16;93745.44;;;13.39;49.90
20009;BME280;10165;42.662;23.260;2023-03-25T06:43:47;93739.59;;;13.74;49.57
20009;BME280;10165;42.662;23.260;2023-03-25T06:46:14;93742.00;;;13.42;50.34
20009;BME280;10165;42.662;23.260;2023-03-25T06:48:42;93744.03;;;13.52;49.57
20009;BME280;10165;42.662;23.260;2023-03-25T06:51:09;93747.34;;;13.82;49.40
20009;BME280;10165;42.662;23.260;2023-03-25T06:53:35;93752.69;;;13.79;49.77
20009;BME280;10165;42.662;23.260;2023-03-25T06:56:02;93745.25;;;14.20;49.57
20009;BME280;10165;42.662;23.260;2023-03-25T06:58:36;93757.81;;;13.98;50.24
20009;BME280;10165;42.662;23.260;2023-03-25T07:01:04;93753.47;;;13.83;50.58
20009;BME280;10165;42.662;23.260;2023-03-25T07:03:34;93760.16;;;13.56;51.55
20009;BME280;10165;42.662;23.260;2023-03-25T07:06:09;93755.81;;;13.92;51.18
20009;BME280;10165;42.662;23.260;2023-03-25T07:08:40;93745.03;;;14.43;49.96
20009;BME280;10165;42.662;23.260;2023-03-25T07:11:07;93747.50;;;14.11;50.85
20009;BME280;10165;42.662;23.260;2023-03-25T07:13:37;93739.53;;;14.25;50.67
20009;BME280;10165;42.662;23.260;2023-03-25T07:16:07;93745.78;;;14.36;50.31
20009;BME280;10165;42.662;23.260;2023-03-25T07:18:37;93740.69;;;14.24;50.62
20009;BME280;10165;42.662;23.260;2023-03-25T07:21:07;93740.25;;;14.15;50.71
20009;BME280;10165;42.662;23.260;2023-03-25T07:23:33;93735.88;;;14.58;50.05
20009;BME280;10165;42.662;23.260;2023-03-25T07:26:00;93747.69;;;14.35;50.23
20009;BME280;10165;42.662;23.260;2023-03-25T07:28:30;93740.59;;;14.86;49.30
20009;BME280;10165;42.662;23.260;2023-03-25T07:30:59;93735.69;;;15.30;48.36
20009;BME280;10165;42.662;23.260;2023-03-25T07:33:30;93733.00;;;15.23;47.78
20009;BME280;10165;42.662;23.260;2023-03-25T07:36:00;93740.03;;;14.41;49.85
20009;BME280;10165;42.662;23.260;2023-03-25T07:38:27;93743.03;;;15.33;48.06
20009;BME280;10165;42.662;23.260;2023-03-25T07:40:54;93735.75;;;15.58;47.94
20009;BME280;10165;42.662;23.260;2023-03-25T07:43:21;93728.06;;;15.60;47.63
20009;BME280;10165;42.662;23.260;2023-03-25T07:45:47;93723.78;;;15.95;47.23
20009;BME280;10165;42.662;23.260;2023-03-25T07:48:15;93726.13;;;15.78;46.67
20009;BME280;10165;42.662;23.260;2023-03-25T07:50:42;93723.81;;;16.02;46.74
20009;BME280;10165;42.662;23.260;2023-03-25T07:53:11;93721.06;;;16.23;46.21
20009;BME280;10165;42.662;23.260;2023-03-25T07:55:37;93714.19;;;15.97;46.70
20009;BME280;10165;42.662;23.260;2023-03-25T07:58:04;93709.22;;;15.74;47.23
20009;BME280;10165;42.662;23.260;2023-03-25T08:00:30;93706.09;;;15.83;46.96
20009;BME280;10165;42.662;23.260;2023-03-25T08:02:57;93696.84;;;16.12;46.63
20009;BME280;10165;42.662;23.260;2023-03-25T08:05:25;93697.25;;;16.00;46.76
20009;BME280;10165;42.662;23.260;2023-03-25T08:07:53;93697.28;;;15.83;47.91
20009;BME280;10165;42.662;23.260;2023-03-25T08:10:20;93695.66;;;16.24;46.69
20009;BME280;10165;42.662;23.260;2023-03-25T08:12:51;93692.47;;;16.57;46.33
20009;BME280;10165;42.662;23.260;2023-03-25T08:15:21;93689.75;;;16.64;45.64
20009;BME280;10165;42.662;23.260;2023-03-25T08:17:50;93686.22;;;16.82;45.58
20009;BME280;10165;42.662;23.260;2023-03-25T08:20:22;93689.38;;;16.62;45.34
20009;BME280;10165;42.662;23.260;2023-03-25T08:22:49;93684.75;;;16.52;46.19
20009;BME280;10165;42.662;23.260;2023-03-25T08:25:24;93689.06;;;17.19;44.75
20009;BME280;10165;42.662;23.260;2023-03-25T08:27:51;93688.78;;;17.03;44.68
20009;BME280;10165;42.662;23.260;2023-03-25T08:30:17;93690.41;;;17.45;44.04
20009;BME280;10165;42.662;23.260;2023-03-25T08:32:46;93691.66;;;17.33;44.26
20009;BME280;10165;42.662;23.260;2023-03-25T08:35:22;93678.56;;;17.35;44.38
20009;BME280;10165;42.662;23.260;2023-03-25T08:37:50;93675.03;;;17.42;43.64
20009;BME280;10165;42.662;23.260;2023-03-25T08:40:22;93677.91;;;17.68;43.48
20009;BME280;10165;42.662;23.260;2023-03-25T08:42:48;93668.63;;;17.73;43.57
20009;BME280;10165;42.662;23.260;2023-03-25T08:45:15;93672.47;;;17.72;43.54
20009;BME280;10165;42.662;23.260;2023-03-25T08:47:42;93668.56;;;17.80;43.53
20009;BME280;10165;42.662;23.260;2023-03-25T08:50:14;93672.25;;;17.97;43.43
20009;BME280;10165;42.662;23.260;2023-03-25T08:52:45;93671.53;;;17.93;43.46
20009;BME280;10165;42.662;23.260;2023-03-25T08:55:12;93673.72;;;17.64;43.66
20009;BME280;10165;42.662;23.260;2023-03-25T08:57:43;93672.63;;;17.54;43.56
20009;BME280;10165;42.662;23.260;2023-03-25T09:00:10;93666.16;;;17.89;43.24
20009;BME280;10165;42.662;23.260;2023-03-25T09:02:40;93665.28;;;17.99;43.39
20009;BME280;10165;42.662;23.260;2023-03-25T09:05:11;93668.66;;;17.70;43.56
20009;BME280;10165;42.662;23.260;2023-03-25T09:07:38;93667.66;;;17.46;43.82
20009;BME280;10165;42.662;23.260;2023-03-25T09:10:06;93658.94;;;17.28;45.09
20009;BME280;10165;42.662;23.260;2023-03-25T09:12:39;93654.69;;;17.75;44.06
20009;BME280;10165;42.662;23.260;2023-03-25T09:15:07;93657.59;;;17.94;43.09
20009;BME280;10165;42.662;23.260;2023-03-25T09:17:34;93646.31;;;18.03;42.47
20009;BME280;10165;42.662;23.260;2023-03-25T09:20:03;93641.13;;;18.19;42.56
20009;BME280;10165;42.662;23.260;2023-03-25T09:22:36;93642.03;;;18.09;42.82
20009;BME280;10165;42.662;23.260;2023-03-25T09:25:03;93644.06;;;18.35;42.43
20009;BME280;10165;42.662;23.260;2023-03-25T09:27:30;93634.34;;;18.72;41.48
20009;BME280;10165;42.662;23.260;2023-03-25T09:29:56;93638.41;;;18.23;41.97
20009;BME280;10165;42.662;23.260;2023-03-25T09:32:23;93633.03;;;18.83;41.37
20009;BME280;10165;42.662;23.260;2023-03-25T09:34:51;93639.03;;;18.34;42.17
20009;BME280;10165;42.662;23.260;2023-03-25T09:37:18;93642.47;;;18.38;42.17
20009;BME280;10165;42.662;23.260;2023-03-25T09:39:44;93635.91;;;18.39;41.99
20009;BME280;10165;42.662;23.260;2023-03-25T09:42:28;93635.59;;;18.30;41.87
20009;BME280;10165;42.662;23.260;2023-03-25T09:45:04;93633.84;;;18.80;41.21
20009;BME280;10165;42.662;23.260;2023-03-25T09:47:38;93630.50;;;18.39;41.09
20009;BME280;10165;42.662;23.260;2023-03-25T09:50:11;93625.50;;;18.94;40.49
20009;BME280;10165;42.662;23.260;2023-03-25T09:55:17;93619.53;;;19.33;40.25
20009;BME280;10165;42.662;23.260;2023-03-25T09:57:49;93623.44;;;19.29;39.72
20009;BME280;10165;42.662;23.260;2023-03-25T10:00:24;93623.34;;;19.13;39.06
20009;BME280;10165;42.662;23.260;2023-03-25T10:03:20;93620.28;;;19.34;38.10
20009;BME280;10165;42.662;23.260;2023-03-25T10:09:09;93614.28;;;19.23;38.42
20009;BME280;10165;42.662;23.260;2023-03-25T10:11:54;93605.06;;;19.67;37.69
20009;BME280;10165;42.662;23.260;2023-03-25T10:14:28;93598.75;;;19.73;38.17
20009;BME280;10165;42.662;23.260;2023-03-25T10:17:38;93592.16;;;19.51;37.54
20009;BME280;10165;42.662;23.260;2023-03-25T10:25:28;93570.72;;;19.60;37.45
20009;BME280;10165;42.662;23.260;2023-03-25T10:27:57;93565.56;;;19.89;36.95
20009;BME280;10165;42.662;23.260;2023-03-25T10:30:26;93573.56;;;19.53;37.53
20009;BME280;10165;42.662;23.260;2023-03-25T10:32:57;93572.19;;;19.41;37.67
20009;BME280;10165;42.662;23.260;2023-03-25T10:35:30;93576.44;;;19.66;37.51
20009;BME280;10165;42.662;23.260;2023-03-25T10:38:04;93559.38;;;19.45;37.13
20009;BME280;10165;42.662;23.260;2023-03-25T10:40:42;93558.19;;;19.70;36.98
20009;BME280;10165;42.662;23.260;2023-03-25T10:45:50;93548.41;;;19.29;38.17
20009;BME280;10165;42.662;23.260;2023-03-25T10:48:24;93548.41;;;19.52;38.20
20009;BME280;10165;42.662;23.260;2023-03-25T10:51:03;93549.19;;;19.53;37.86
20009;BME280;10165;42.662;23.260;2023-03-25T10:53:34;93551.31;;;19.85;37.59
20009;BME280;10165;42.662;23.260;2023-03-25T10:56:06;93545.63;;;20.38;37.12
20009;BME280;10165;42.662;23.260;2023-03-25T10:58:37;93541.72;;;20.39;37.26
20009;BME280;10165;42.662;23.260;2023-03-25T11:01:16;93535.00;;;20.64;36.55
20009;BME280;10165;42.662;23.260;2023-03-25T11:03:45;93532.53;;;20.33;37.53
20009;BME280;10165;42.662;23.260;2023-03-25T11:06:25;93526.91;;;19.65;38.01
20009;BME280;10165;42.662;23.260;2023-03-25T11:11:34;93515.84;;;20.15;37.26
20009;BME280;10165;42.662;23.260;2023-03-25T11:14:02;93518.97;;;20.14;36.91
20009;BME280;10165;42.662;23.260;2023-03-25T11:16:33;93509.44;;;20.25;36.35
20009;BME280;10165;42.662;23.260;2023-03-25T11:19:02;93513.78;;;20.03;36.09
20009;BME280;10165;42.662;23.260;2023-03-25T11:21:32;93511.34;;;20.64;35.74
20009;BME280;10165;42.662;23.260;2023-03-25T11:24:01;93508.47;;;20.87;34.87
20009;BME280;10165;42.662;23.260;2023-03-25T11:26:39;93501.09;;;21.04;35.06
20009;BME280;10165;42.662;23.260;2023-03-25T11:29:12;93498.59;;;20.25;35.30
20009;BME280;10165;42.662;23.260;2023-03-25T11:31:41;93491.09;;;20.13;35.54
20009;BME280;10165;42.662;23.260;2023-03-25T11:36:41;93486.13;;;20.28;34.88
20009;BME280;10165;42.662;23.260;2023-03-25T11:41:50;93480.50;;;21.52;33.13
20009;BME280;10165;42.662;23.260;2023-03-25T11:44:37;93480.13;;;21.05;33.50
20009;BME280;10165;42.662;23.260;2023-03-25T11:47:07;93472.06;;;21.17;33.57
20009;BME280;10165;42.662;23.260;2023-03-25T11:49:37;93475.28;;;21.12;33.52
20009;BME280;10165;42.662;23.260;2023-03-25T11:52:08;93469.19;;;20.92;32.92
20009;BME280;10165;42.662;23.260;2023-03-25T11:54:39;93468.84;;;20.58;32.99
20009;BME280;10165;42.662;23.260;2023-03-25T11:57:13;93462.72;;;21.02;32.70
20009;BME280;10165;42.662;23.260;2023-03-25T11:59:46;93470.31;;;20.07;34.00
20009;BME280;10165;42.662;23.260;2023-03-25T12:02:37;93469.25;;;20.20;33.83
20009;BME280;10165;42.662;23.260;2023-03-25T12:10:31;93461.34;;;20.29;33.85
20009;BME280;10165;42.662;23.260;2023-03-25T12:15:57;93450.59;;;20.90;33.28
20009;BME280;10165;42.662;23.260;2023-03-25T12:49:39;93451.91;;;19.98;33.43
20009;BME280;10165;42.662;23.260;2023-03-25T12:52:27;93460.16;;;20.30;33.12
20009;BME280;10165;42.662;23.260;2023-03-25T13:00:59;93452.19;;;20.39;33.07
20009;BME280;10165;42.662;23.260;2023-03-25T13:06:31;93450.84;;;20.47;33.08
20009;BME280;10165;42.662;23.260;2023-03-25T13:09:14;93460.28;;;20.23;33.29
20009;BME280;10165;42.662;23.260;2023-03-25T13:14:45;93456.09;;;19.83;34.56
20009;BME280;10165;42.662;23.260;2023-03-25T13:17:40;93456.44;;;20.04;34.73
20009;BME280;10165;42.662;23.260;2023-03-25T13:20:13;93456.38;;;19.69;34.41
20009;BME280;10165;42.662;23.260;2023-03-25T13:22:48;93460.97;;;19.52;34.91
20009;BME280;10165;42.662;23.260;2023-03-25T13:25:23;93469.25;;;19.41;35.42
20009;BME280;10165;42.662;23.260;2023-03-25T13:27:52;93456.94;;;19.17;37.32
20009;BME280;10165;42.662;23.260;2023-03-25T13:30:32;93458.25;;;19.72;36.94
20009;BME280;10165;42.662;23.260;2023-03-25T13:33:22;93461.94;;;19.62;37.34
20009;BME280;10165;42.662;23.260;2023-03-25T13:36:14;93462.34;;;19.80;35.39
20009;BME280;10165;42.662;23.260;2023-03-25T13:38:52;93468.69;;;19.30;36.12
20009;BME280;10165;42.662;23.260;2023-03-25T13:42:03;93489.78;;;18.96;36.65
20009;BME280;10165;42.662;23.260;2023-03-25T13:44:35;93494.59;;;18.61;38.37
20009;BME280;10165;42.662;23.260;2023-03-25T13:47:19;93526.03;;;17.54;45.25
20009;BME280;10165;42.662;23.260;2023-03-25T13:49:53;93505.81;;;17.69;46.81
20009;BME280;10165;42.662;23.260;2023-03-25T13:52:29;93524.81;;;17.62;49.70
20009;BME280;10165;42.662;23.260;2023-03-25T13:55:08;93531.22;;;17.75;48.43
20009;BME280;10165;42.662;23.260;2023-03-25T13:58:06;93527.13;;;17.19;49.20
20009;BME280;10165;42.662;23.260;2023-03-25T14:03:53;93525.06;;;17.71;49.18
20009;BME280;10165;42.662;23.260;2023-03-25T14:09:32;93512.94;;;18.47;49.32
20009;BME280;10165;42.662;23.260;2023-03-25T14:12:16;93511.22;;;18.60;49.95
20009;BME280;10165;42.662;23.260;2023-03-25T14:14:54;93505.16;;;18.49;50.57
20009;BME280;10165;42.662;23.260;2023-03-25T14:17:29;93504.22;;;18.36;50.43
20009;BME280;10165;42.662;23.260;2023-03-25T14:19:58;93503.75;;;18.10;49.83
20009;BME280;10165;42.662;23.260;2023-03-25T14:22:28;93506.53;;;17.73;51.45
20009;BME280;10165;42.662;23.260;2023-03-25T14:24:58;93505.69;;;18.10;51.71
20009;BME280;10165;42.662;23.260;2023-03-25T14:27:29;93510.28;;;18.17;51.48
20009;BME280;10165;42.662;23.260;2023-03-25T14:32:44;93492.59;;;18.08;51.15
20009;BME280;10165;42.662;23.260;2023-03-25T14:54:03;93407.66;;;17.49;59.56
20009;BME280;10165;42.662;23.260;2023-03-25T14:56:55;93402.84;;;17.63;59.88
20009;BME280;10165;42.662;23.260;2023-03-25T14:59:38;93399.25;;;17.43;59.93
20009;BME280;10165;42.662;23.260;2023-03-25T15:04:54;93402.59;;;17.85;61.80
20009;BME280;10165;42.662;23.260;2023-03-25T15:10:18;93402.81;;;17.97;61.04
20009;BME280;10165;42.662;23.260;2023-03-25T15:12:49;93400.81;;;18.01;60.53
20009;BME280;10165;42.662;23.260;2023-03-25T15:23:42;93391.34;;;17.90;59.72
20009;BME280;10165;42.662;23.260;2023-03-25T15:26:37;93392.69;;;17.75;60.54
20009;BME280;10165;42.662;23.260;2023-03-25T15:29:19;93386.84;;;17.80;58.85
20009;BME280;10165;42.662;23.260;2023-03-25T15:35:13;93384.41;;;17.89;58.71
20009;BME280;10165;42.662;23.260;2023-03-25T15:54:58;93382.47;;;17.89;58.61
20009;BME280;10165;42.662;23.260;2023-03-25T15:57:46;93378.88;;;17.96;59.70
20009;BME280;10165;42.662;23.260;2023-03-25T16:00:29;93379.16;;;17.75;60.23
20009;BME280;10165;42.662;23.260;2023-03-25T16:05:35;93370.63;;;17.80;60.33
20009;BME280;10165;42.662;23.260;2023-03-25T16:08:12;93379.88;;;17.79;59.41